Graham, WA (98338)

4:17 AM PST on February 09, 2016 (GMT -0800)
86th Street Neighborhood | | Change Station
CLOSE
Current Station
Personal Weather Station
Location: Graham, WA
Elevation: 500 ft
Nearby Weather Stations

Elev 500 ft 47.04 °N, 122.32 °W | Updated 6 seconds ago

Fog
Fog
32.7 °F
Feels Like 33 °F
N
0.0
Wind Variable Wind from SE
Gusts 0.0 mph

Today
High -- | Low -- °F
--% Chance of Precip.
Yesterday
High -- | Low -- °F
Precip. -- in
Pressure 30.21 in
Visibility 0.2 miles
Clouds Overcast 200 ft
Windchill 33 °F
Dew Point 32 °F
Humidity 98%
Rainfall 0.00 in
Snow Depth Not available.
7:23 AM 5:23 PM
New Moon, 1% visible
METAR KPLU 091155Z AUTO 00000KT 1/4SM FG OVC002 03/03 A3021 RMK AO2
Pressure 30.21 in
Visibility 0.2 miles
Clouds Overcast 200 ft
Windchill 33 °F
Dew Point 32 °F
Humidity 98%
Rainfall 0.00 in
Snow Depth Not available.
7:23 AM 5:23 PM
New Moon, 1% visible
METAR KPLU 091155Z AUTO 00000KT 1/4SM FG OVC002 03/03 A3021 RMK AO2

10-Day Weather Forecast

Almanac

Astronomy

Feb. 09, 2016 Rise Set
Actual Time
Civil Twilight
Nautical Twilight
Astronomical Twilight
Moon
Length of Visible Light
Length of Day
Tomorrow will be .
, % of the Moon is Illuminated

Today's Extremes

State Highs State Lows

Community

WunderPhotos

Upload Photos

1,891,588 photos uploaded!

WunderBlog® & News

Nearby

Air Quality

  Air Quality AQ Index Pollutant
Not available.

Snow Depth

Station Depth Elevation

Earthquake Activity

City Distance Mag. Time & Date
Minimum magnitude displayed is 2.5.

Coastal Water Temperatures

Place Temperature

Stations

Nearby Weather Stations

Station Location Temp. Windchill Dew Point Humidity Wind Precip. Elev Updated Type
                   

Watches & Warnings

There are currently no watches in effect.